Time;durP1;ratioP1;P1;durP2;ratioP2;P2;SDS_P1;SDS_P2;PMS_P1;PMS_P2;Temp;Humidity;BMP_temperature;BMP_pressure;BME280_temperature;BME280_humidity;BME280_pressure;Samples;Min_cycle;Max_cycle;Signal;HPM_P1;HPM_P2
2020/12/21 00:00:36;;;;;;;14.20;5.50;;;6.80;99.90;;;;;;5094885;28;20293;-81
2020/12/21 00:03:03;;;;;;;20.03;5.57;;;6.80;99.90;;;;;;5093743;28;20200;-83
2020/12/21 00:05:30;;;;;;;15.77;5.30;;;6.80;99.90;;;;;;5094653;28;20289;-81
2020/12/21 00:08:01;;;;;;;15.23;6.27;;;6.70;99.90;;;;;;5093941;28;20281;-84
2020/12/21 00:10:30;;;;;;;18.00;6.40;;;6.70;99.90;;;;;;5108969;28;20190;-81
2020/12/21 00:12:57;;;;;;;12.87;5.50;;;6.60;99.90;;;;;;5099908;28;20201;-81
2020/12/21 00:15:23;;;;;;;15.57;5.67;;;6.60;99.90;;;;;;5114515;28;20214;-81
2020/12/21 00:17:50;;;;;;;11.37;5.33;;;6.70;99.90;;;;;;5114341;28;20762;-80
2020/12/21 00:20:17;;;;;;;19.30;5.67;;;6.70;99.90;;;;;;5106508;28;20290;-80
2020/12/21 00:22:44;;;;;;;17.43;5.67;;;6.70;99.90;;;;;;5107835;28;20844;-81
2020/12/21 00:25:11;;;;;;;16.13;5.60;;;6.50;99.90;;;;;;5100044;28;20208;-80
2020/12/21 00:27:37;;;;;;;11.57;5.77;;;6.60;99.90;;;;;;5114449;28;20235;-80
2020/12/21 00:30:04;;;;;;;21.80;6.37;;;6.60;99.90;;;;;;5113328;28;20202;-80
2020/12/21 00:32:32;;;;;;;13.50;5.80;;;6.70;99.90;;;;;;5103459;28;20202;-79
2020/12/21 00:34:59;;;;;;;16.13;5.53;;;6.60;99.90;;;;;;5096183;28;20304;-79
2020/12/21 00:37:25;;;;;;;18.43;5.37;;;6.60;99.90;;;;;;5105170;28;20205;-79
2020/12/21 00:39:52;;;;;;;12.33;5.13;;;6.60;99.90;;;;;;5094296;28;20657;-79
2020/12/21 00:42:19;;;;;;;14.93;4.97;;;6.60;99.90;;;;;;5106809;28;20195;-79
2020/12/21 00:44:45;;;;;;;12.67;5.60;;;6.60;99.90;;;;;;5093327;28;20318;-79
2020/12/21 00:47:12;;;;;;;14.07;4.83;;;6.50;99.90;;;;;;5093433;28;20206;-78
2020/12/21 00:49:38;;;;;;;12.67;5.17;;;6.60;99.90;;;;;;5105027;28;20560;-79
2020/12/21 00:52:04;;;;;;;15.23;5.30;;;6.70;99.90;;;;;;5110227;28;20728;-78
2020/12/21 00:54:31;;;;;;;13.53;4.87;;;6.60;99.90;;;;;;5103013;28;20684;-80
2020/12/21 00:56:57;;;;;;;11.97;5.87;;;6.60;99.90;;;;;;5113453;28;20204;-80
2020/12/21 00:59:24;;;;;;;17.73;5.20;;;6.60;99.90;;;;;;5113499;28;20200;-79
2020/12/21 01:01:51;;;;;;;12.27;5.80;;;6.60;99.90;;;;;;5113707;28;20197;-80
2020/12/21 01:04:17;;;;;;;14.43;5.53;;;6.60;99.90;;;;;;5107370;28;20202;-80
2020/12/21 01:06:43;;;;;;;17.43;5.43;;;6.60;99.90;;;;;;5081388;28;20243;-79
2020/12/21 01:09:10;;;;;;;16.40;6.03;;;6.60;99.90;;;;;;5091000;28;20197;-81
2020/12/21 01:11:36;;;;;;;19.87;5.53;;;6.70;99.90;;;;;;5107364;28;20214;-79
2020/12/21 01:14:03;;;;;;;17.73;6.43;;;6.70;99.90;;;;;;5105496;28;20214;-79
2020/12/21 01:16:31;;;;;;;21.17;7.00;;;6.70;99.90;;;;;;5113340;28;20197;-80
2020/12/21 01:18:57;;;;;;;16.40;6.90;;;6.70;99.90;;;;;;5113612;28;20288;-80
2020/12/21 01:21:27;;;;;;;16.93;7.50;;;6.80;99.90;;;;;;5110620;28;20201;-79
2020/12/21 01:23:55;;;;;;;23.23;7.90;;;6.80;99.90;;;;;;5102871;28;20205;-81
2020/12/21 01:26:21;;;;;;;19.17;7.13;;;6.90;99.90;;;;;;5111907;28;20249;-82
2020/12/21 01:28:48;;;;;;;18.43;7.60;;;6.80;99.90;;;;;;5101427;28;20271;-81
2020/12/21 01:31:15;;;;;;;18.40;7.47;;;6.80;99.90;;;;;;5113708;28;20212;-81
2020/12/21 01:33:42;;;;;;;20.43;7.37;;;6.80;99.90;;;;;;5099090;28;20307;-81
2020/12/21 01:36:09;;;;;;;18.93;7.60;;;6.80;99.90;;;;;;5101107;28;20594;-81
2020/12/21 01:38:35;;;;;;;19.73;7.90;;;6.90;99.90;;;;;;5107497;28;20281;-81
2020/12/21 01:41:01;;;;;;;17.90;7.87;;;6.90;99.90;;;;;;5103530;28;20612;-80
2020/12/21 01:43:28;;;;;;;20.30;7.53;;;6.80;99.90;;;;;;5096554;28;20251;-81
2020/12/21 01:45:54;;;;;;;17.17;7.23;;;6.80;99.90;;;;;;5101436;28;20688;-82
2020/12/21 01:48:22;;;;;;;19.43;7.70;;;6.80;99.90;;;;;;5098375;28;20627;-81
2020/12/21 01:50:49;;;;;;;20.63;7.97;;;6.80;99.90;;;;;;5086396;28;20212;-81
2020/12/21 01:53:16;;;;;;;19.83;7.57;;;6.80;99.90;;;;;;5099192;28;20205;-81
2020/12/21 01:55:44;;;;;;;23.53;8.20;;;6.80;99.90;;;;;;5107253;28;20218;-81
2020/12/21 01:58:11;;;;;;;23.23;8.17;;;6.80;99.90;;;;;;5093165;28;20335;-81
2020/12/21 02:00:37;;;;;;;22.63;7.93;;;6.80;99.90;;;;;;5107280;28;20628;-81
2020/12/21 02:03:08;;;;;;;18.07;8.37;;;6.70;99.90;;;;;;5103007;28;20274;-81
2020/12/21 02:05:36;;;;;;;21.40;7.07;;;6.70;99.90;;;;;;5113351;28;20212;-81
2020/12/21 02:08:03;;;;;;;19.70;8.33;;;6.80;99.90;;;;;;5112815;28;20213;-81
2020/12/21 02:10:32;;;;;;;15.30;6.30;;;6.80;99.90;;;;;;5102135;28;20198;-82
2020/12/21 02:12:58;;;;;;;19.77;6.97;;;6.80;99.90;;;;;;5090412;28;20199;-81
2020/12/21 02:15:25;;;;;;;21.70;7.13;;;6.80;99.90;;;;;;5096592;28;20232;-81
2020/12/21 02:17:52;;;;;;;19.80;6.73;;;6.80;99.90;;;;;;5079693;28;20203;-82
2020/12/21 02:20:27;;;;;;;17.93;6.60;;;6.70;99.90;;;;;;5085407;28;20612;-81
2020/12/21 02:22:54;;;;;;;21.23;6.10;;;6.90;99.90;;;;;;5087651;28;20205;-81
2020/12/21 02:25:20;;;;;;;16.47;5.40;;;6.80;99.90;;;;;;5076825;28;20203;-82
2020/12/21 02:27:46;;;;;;;19.60;6.20;;;6.80;99.90;;;;;;5089032;28;20205;-81
2020/12/21 02:30:13;;;;;;;14.37;5.60;;;6.80;99.90;;;;;;5076394;28;20248;-81
2020/12/21 02:32:39;;;;;;;17.83;5.57;;;6.80;99.90;;;;;;5080987;28;20278;-80
2020/12/21 02:35:06;;;;;;;18.27;5.80;;;6.80;99.90;;;;;;5096257;28;20228;-79
2020/12/21 02:37:34;;;;;;;16.40;5.30;;;6.90;99.90;;;;;;5078466;28;20285;-79
2020/12/21 02:40:00;;;;;;;17.97;5.60;;;6.80;99.90;;;;;;5085535;28;20593;-79
2020/12/21 02:42:26;;;;;;;14.67;4.80;;;6.90;99.90;;;;;;5081590;28;20571;-79
2020/12/21 02:44:53;;;;;;;17.53;4.63;;;6.90;99.90;;;;;;5088555;28;20206;-79
2020/12/21 02:47:19;;;;;;;19.93;5.53;;;6.90;99.90;;;;;;5076442;28;20218;-79
2020/12/21 02:49:45;;;;;;;13.57;4.73;;;6.90;99.90;;;;;;5094675;28;20273;-79
2020/12/21 02:52:12;;;;;;;12.67;4.37;;;6.90;99.90;;;;;;5095764;28;20199;-80
2020/12/21 02:54:39;;;;;;;13.50;4.23;;;6.90;99.90;;;;;;5081459;28;20210;-80
2020/12/21 02:57:05;;;;;;;14.47;4.87;;;6.80;99.90;;;;;;5095579;28;20288;-79
2020/12/21 02:59:32;;;;;;;14.87;4.30;;;6.70;99.90;;;;;;5094171;28;20205;-80
2020/12/21 03:01:58;;;;;;;12.60;4.30;;;6.80;99.90;;;;;;5075530;28;20199;-80
2020/12/21 03:04:24;;;;;;;13.13;4.90;;;6.70;99.90;;;;;;5075516;28;20260;-80
2020/12/21 03:06:51;;;;;;;11.30;4.07;;;6.70;99.90;;;;;;5075702;28;20286;-80
2020/12/21 03:09:17;;;;;;;13.20;4.70;;;6.80;99.90;;;;;;5075961;28;20650;-80
2020/12/21 03:11:46;;;;;;;16.47;4.27;;;6.80;99.90;;;;;;5093085;28;20196;-80
2020/12/21 03:14:12;;;;;;;17.90;4.60;;;6.80;99.90;;;;;;5095279;28;20222;-82
2020/12/21 03:16:39;;;;;;;17.20;5.00;;;6.90;99.90;;;;;;5078748;28;20244;-81
2020/12/21 03:19:05;;;;;;;20.23;4.17;;;6.90;99.90;;;;;;5084242;28;20217;-81
2020/12/21 03:21:31;;;;;;;13.80;3.93;;;7.00;99.90;;;;;;5080382;28;20214;-82
2020/12/21 03:23:58;;;;;;;11.33;4.00;;;7.00;99.90;;;;;;5080820;28;20230;-82
2020/12/21 03:26:24;;;;;;;14.57;4.30;;;7.00;99.90;;;;;;5083048;28;20654;-82
2020/12/21 03:28:52;;;;;;;8.47;3.50;;;7.00;99.90;;;;;;5089224;28;20207;-83
2020/12/21 03:31:18;;;;;;;12.37;3.77;;;7.10;99.90;;;;;;5084954;28;20202;-83
2020/12/21 03:33:44;;;;;;;10.57;3.43;;;7.10;99.90;;;;;;5078422;28;20210;-83
2020/12/21 03:36:11;;;;;;;12.50;3.83;;;7.10;99.90;;;;;;5083162;28;20195;-83
2020/12/21 03:38:37;;;;;;;8.07;3.87;;;7.20;99.90;;;;;;5080478;28;20214;-84
2020/12/21 03:41:04;;;;;;;13.33;3.77;;;7.20;99.90;;;;;;5081147;28;20190;-82
2020/12/21 03:43:30;;;;;;;13.43;4.47;;;7.20;99.90;;;;;;5094731;28;20204;-82
2020/12/21 03:45:57;;;;;;;15.30;4.30;;;7.40;99.90;;;;;;5094631;28;20289;-83
2020/12/21 03:48:23;;;;;;;15.23;4.77;;;7.30;99.90;;;;;;5083673;28;20243;-83
2020/12/21 03:50:50;;;;;;;13.40;3.77;;;7.30;99.90;;;;;;5074768;28;20205;-82
2020/12/21 03:53:16;;;;;;;11.27;4.67;;;7.30;99.90;;;;;;5093505;28;20243;-83
2020/12/21 03:55:43;;;;;;;13.70;4.37;;;7.30;99.90;;;;;;5093509;28;20548;-82
2020/12/21 03:58:09;;;;;;;11.10;3.53;;;7.40;99.90;;;;;;5092042;28;20289;-83
2020/12/21 04:00:35;;;;;;;9.17;3.47;;;7.30;99.90;;;;;;5094297;28;20289;-81
2020/12/21 04:03:02;;;;;;;11.70;3.40;;;7.40;99.90;;;;;;5094001;28;20288;-82
2020/12/21 04:05:29;;;;;;;9.10;3.70;;;7.50;99.90;;;;;;5094147;28;20297;-81
2020/12/21 04:07:55;;;;;;;12.93;4.17;;;7.40;99.90;;;;;;5093720;28;20204;-81
2020/12/21 04:10:22;;;;;;;10.47;3.57;;;7.40;99.90;;;;;;5084120;28;20194;-82
2020/12/21 04:12:48;;;;;;;12.60;4.53;;;7.40;99.90;;;;;;5094067;28;20289;-82
2020/12/21 04:15:14;;;;;;;12.77;4.40;;;7.40;99.90;;;;;;5093889;28;20359;-81
2020/12/21 04:17:41;;;;;;;9.37;4.30;;;7.40;99.90;;;;;;5094182;28;20198;-82
2020/12/21 04:20:08;;;;;;;11.20;4.00;;;7.40;99.90;;;;;;5090064;28;20213;-81
2020/12/21 04:22:34;;;;;;;11.17;3.60;;;7.40;99.90;;;;;;5094029;28;20216;-81
2020/12/21 04:25:00;;;;;;;14.33;3.73;;;7.50;99.90;;;;;;5093546;28;20210;-81
2020/12/21 04:27:27;;;;;;;15.97;4.07;;;7.50;99.90;;;;;;5093946;28;20199;-80
2020/12/21 04:29:53;;;;;;;9.60;4.70;;;7.50;99.90;;;;;;5094334;28;20212;-80
2020/12/21 04:32:19;;;;;;;11.47;4.13;;;7.50;99.90;;;;;;5079505;28;20251;-81
2020/12/21 04:34:46;;;;;;;11.50;3.77;;;7.50;99.90;;;;;;5093109;28;20217;-81
2020/12/21 04:37:13;;;;;;;11.17;4.20;;;7.50;99.90;;;;;;5093620;28;20720;-81
2020/12/21 04:39:39;;;;;;;13.43;4.93;;;7.60;99.90;;;;;;5093805;28;20208;-80
2020/12/21 04:42:06;;;;;;;12.30;3.83;;;7.60;99.90;;;;;;5095098;28;20206;-81
2020/12/21 04:44:32;;;;;;;10.70;4.53;;;7.50;99.90;;;;;;5087774;28;20211;-80
2020/12/21 04:46:59;;;;;;;19.73;5.20;;;7.60;99.90;;;;;;5087486;28;20662;-81
2020/12/21 04:49:26;;;;;;;14.83;4.07;;;7.50;99.90;;;;;;5094009;28;20212;-80
2020/12/21 04:51:52;;;;;;;12.00;4.10;;;7.60;99.90;;;;;;5082074;28;20205;-82
2020/12/21 04:54:20;;;;;;;13.20;4.33;;;7.60;99.90;;;;;;5076804;28;20634;-82
2020/12/21 04:56:47;;;;;;;12.37;4.93;;;7.60;99.90;;;;;;5093299;28;20296;-82
2020/12/21 04:59:14;;;;;;;12.87;4.90;;;7.60;99.90;;;;;;5091641;28;20532;-82
2020/12/21 05:01:41;;;;;;;12.90;4.67;;;7.60;99.90;;;;;;5081247;28;20653;-82
2020/12/21 05:04:07;;;;;;;15.43;4.83;;;7.60;99.90;;;;;;5079039;28;20551;-82
2020/12/21 05:06:34;;;;;;;15.53;5.00;;;7.50;99.90;;;;;;5079861;28;20289;-81
2020/12/21 05:09:04;;;;;;;16.03;4.50;;;7.50;99.90;;;;;;5093651;28;20202;-81
2020/12/21 05:11:32;;;;;;;13.23;5.47;;;7.60;99.90;;;;;;5088329;28;20210;-81
2020/12/21 05:14:05;;;;;;;11.93;5.33;;;7.60;99.90;;;;;;5073187;28;20206;-81
2020/12/21 05:16:32;;;;;;;11.07;5.73;;;7.50;99.90;;;;;;5087236;28;20225;-82
2020/12/21 05:18:58;;;;;;;9.83;5.30;;;7.50;99.90;;;;;;5083801;28;20202;-83
2020/12/21 05:21:28;;;;;;;14.53;6.00;;;7.60;99.90;;;;;;5089269;28;20209;-82
2020/12/21 05:23:59;;;;;;;17.93;5.97;;;7.70;99.90;;;;;;5092958;28;20294;-83
2020/12/21 05:26:30;;;;;;;13.33;5.73;;;7.90;99.90;;;;;;5081061;28;20553;-82
2020/12/21 05:28:58;;;;;;;7.77;5.60;;;7.70;99.90;;;;;;5091610;28;20198;-82
2020/12/21 05:31:24;;;;;;;15.90;5.93;;;7.70;99.90;;;;;;5093046;28;20206;-82
2020/12/21 05:33:51;;;;;;;16.33;7.13;;;7.80;99.90;;;;;;5092821;28;20285;-82
2020/12/21 05:36:19;;;;;;;15.83;6.40;;;7.70;99.90;;;;;;5092811;28;20237;-82
2020/12/21 05:38:55;;;;;;;12.93;6.23;;;7.80;99.90;;;;;;5092655;28;20688;-82
2020/12/21 05:41:22;;;;;;;14.03;6.57;;;7.70;99.90;;;;;;5093326;28;20190;-83
2020/12/21 05:43:50;;;;;;;9.63;6.00;;;7.80;99.90;;;;;;5092783;28;20510;-82
2020/12/21 05:46:19;;;;;;;14.67;6.67;;;7.90;99.90;;;;;;5093676;28;20216;-83
2020/12/21 05:48:47;;;;;;;14.77;6.53;;;7.80;99.90;;;;;;5096618;28;20205;-83
2020/12/21 05:51:21;;;;;;;20.47;7.13;;;7.70;99.90;;;;;;5096621;28;20650;-82
2020/12/21 05:53:47;;;;;;;16.53;6.80;;;7.80;99.90;;;;;;5083091;28;20209;-82
2020/12/21 05:56:14;;;;;;;15.80;6.73;;;7.90;99.90;;;;;;5081518;28;20204;-81
2020/12/21 05:58:42;;;;;;;15.27;6.43;;;7.90;99.90;;;;;;5096802;28;20297;-82
2020/12/21 06:01:10;;;;;;;13.33;6.53;;;7.80;99.90;;;;;;5092921;28;20195;-81
2020/12/21 06:03:39;;;;;;;15.27;6.13;;;7.90;99.90;;;;;;5076336;28;20573;-81
2020/12/21 06:06:11;;;;;;;15.57;6.47;;;8.00;99.90;;;;;;5076450;28;20236;-81
2020/12/21 06:08:38;;;;;;;14.63;6.73;;;8.00;99.90;;;;;;5076192;28;20206;-81
2020/12/21 06:11:17;;;;;;;12.17;6.20;;;8.00;99.90;;;;;;5077259;28;20646;-82
2020/12/21 06:13:50;;;;;;;13.23;7.00;;;8.00;99.90;;;;;;5096643;28;20198;-83
2020/12/21 06:16:17;;;;;;;19.50;6.70;;;8.10;99.90;;;;;;5094112;28;20198;-82
2020/12/21 06:19:05;;;;;;;13.23;6.80;;;8.20;99.90;;;;;;5085014;28;20559;-82
2020/12/21 06:21:33;;;;;;;9.60;6.00;;;8.20;99.90;;;;;;5081861;28;20255;-82
2020/12/21 06:23:59;;;;;;;16.07;6.93;;;8.20;99.90;;;;;;5081880;28;20204;-79
2020/12/21 06:26:36;;;;;;;11.60;6.50;;;8.30;99.90;;;;;;5096104;28;20194;-80
2020/12/21 06:29:05;;;;;;;16.60;6.07;;;8.30;99.90;;;;;;5095531;28;20202;-79
2020/12/21 06:31:40;;;;;;;15.87;6.27;;;8.30;99.90;;;;;;5083828;28;20203;-79
2020/12/21 06:34:08;;;;;;;14.53;6.03;;;8.40;99.90;;;;;;5080887;28;20216;-81
2020/12/21 06:36:35;;;;;;;11.97;5.47;;;8.30;99.90;;;;;;5084158;28;20207;-81
2020/12/21 06:39:02;;;;;;;14.97;5.60;;;8.30;99.90;;;;;;5093176;28;20205;-81
2020/12/21 06:41:29;;;;;;;13.63;5.60;;;8.30;99.90;;;;;;5095876;28;20255;-80
2020/12/21 06:43:57;;;;;;;10.82;5.50;;;8.40;99.90;;;;;;5093331;28;20212;-80
2020/12/21 06:46:24;;;;;;;14.10;5.38;;;8.40;99.90;;;;;;5084110;28;20198;-80
2020/12/21 06:49:11;;;;;;;21.30;6.00;;;8.40;99.90;;;;;;5081534;28;20198;-81
2020/12/21 06:51:42;;;;;;;15.10;5.85;;;8.40;99.90;;;;;;5095822;28;20275;-80
2020/12/21 06:54:10;;;;;;;13.60;5.38;;;8.40;99.90;;;;;;5095616;28;20285;-82
2020/12/21 06:56:37;;;;;;;12.83;4.83;;;8.40;99.90;;;;;;5095886;28;20210;-82
2020/12/21 06:59:08;;;;;;;15.33;5.40;;;8.50;99.90;;;;;;5094787;28;20198;-82
2020/12/21 07:01:37;;;;;;;14.55;5.50;;;8.60;99.90;;;;;;5095590;28;20296;-79
2020/12/21 07:04:03;;;;;;;10.93;5.20;;;8.60;99.90;;;;;;5095193;28;20289;-79
2020/12/21 07:06:30;;;;;;;11.48;5.70;;;8.50;99.90;;;;;;5085778;28;20212;-79
2020/12/21 07:08:59;;;;;;;15.50;5.65;;;8.50;99.90;;;;;;5095623;28;20653;-80
2020/12/21 07:11:25;;;;;;;18.00;5.65;;;8.40;99.90;;;;;;5095316;28;20237;-79
2020/12/21 07:13:52;;;;;;;11.48;4.75;;;8.60;99.90;;;;;;5085500;28;20281;-79
2020/12/21 07:16:19;;;;;;;11.63;5.13;;;8.60;99.90;;;;;;5095447;28;20550;-79
2020/12/21 07:18:47;;;;;;;9.85;4.60;;;8.60;99.90;;;;;;5095080;28;20198;-80
2020/12/21 07:21:15;;;;;;;10.23;4.70;;;8.60;99.90;;;;;;5095140;28;20246;-80
2020/12/21 07:23:43;;;;;;;14.95;5.30;;;8.60;99.90;;;;;;5095033;28;20206;-79
2020/12/21 07:26:11;;;;;;;7.95;4.50;;;8.60;99.90;;;;;;5094895;28;20709;-80
2020/12/21 07:28:37;;;;;;;9.18;4.60;;;8.70;99.90;;;;;;5095079;28;20258;-79
2020/12/21 07:31:08;;;;;;;13.95;4.88;;;8.70;99.90;;;;;;5095032;28;20202;-79
2020/12/21 07:33:36;;;;;;;8.00;4.53;;;8.70;99.90;;;;;;5094180;28;20580;-80
2020/12/21 07:36:03;;;;;;;13.43;4.97;;;8.80;99.90;;;;;;5082015;28;20240;-79
2020/12/21 07:38:30;;;;;;;9.70;5.20;;;8.80;99.90;;;;;;5081763;28;20202;-79
2020/12/21 07:40:58;;;;;;;15.10;4.50;;;8.80;99.90;;;;;;5075115;28;20207;-78
2020/12/21 07:43:34;;;;;;;12.32;4.10;;;8.80;99.90;;;;;;5072449;28;20304;-78
2020/12/21 07:46:05;;;;;;;10.65;4.97;;;8.70;99.90;;;;;;5086253;28;20431;-79
2020/12/21 07:48:33;;;;;;;8.07;4.22;;;8.60;99.90;;;;;;5085772;28;20190;-80
2020/12/21 07:51:02;;;;;;;10.25;4.43;;;8.80;99.90;;;;;;5085552;28;20204;-79
2020/12/21 07:53:35;;;;;;;12.63;4.30;;;8.70;99.90;;;;;;5085344;28;20209;-78
2020/12/21 07:56:02;;;;;;;12.30;4.13;;;8.70;99.90;;;;;;5087522;28;20206;-78
2020/12/21 07:58:28;;;;;;;8.48;3.55;;;8.70;99.90;;;;;;5087009;28;20649;-78
2020/12/21 08:00:56;;;;;;;7.75;3.78;;;8.80;99.90;;;;;;5083240;28;20209;-78
2020/12/21 08:03:25;;;;;;;5.82;3.50;;;8.80;99.90;;;;;;5080893;28;20210;-79
2020/12/21 08:06:02;;;;;;;11.48;3.70;;;8.80;99.90;;;;;;5079786;28;20202;-78
2020/12/21 08:08:28;;;;;;;7.10;3.67;;;8.90;99.90;;;;;;5078520;28;20756;-78
2020/12/21 08:10:56;;;;;;;14.30;4.43;;;8.80;99.90;;;;;;5078375;28;20207;-79
2020/12/21 08:13:23;;;;;;;15.68;4.40;;;8.80;99.90;;;;;;5077389;28;20198;-78
2020/12/21 08:15:49;;;;;;;12.48;3.85;;;8.90;99.90;;;;;;5078900;28;20222;-80
2020/12/21 08:18:16;;;;;;;10.95;3.78;;;8.80;99.90;;;;;;5078887;28;20950;-78
2020/12/21 08:20:49;;;;;;;10.15;3.78;;;8.70;99.90;;;;;;5078403;28;20209;-77
2020/12/21 08:23:22;;;;;;;11.68;3.88;;;8.80;99.90;;;;;;5078358;28;20988;-80
2020/12/21 08:25:48;;;;;;;8.23;3.65;;;8.90;99.90;;;;;;5079434;28;20210;-79
2020/12/21 08:28:28;;;;;;;7.72;4.07;;;8.90;99.90;;;;;;5078141;28;20236;-79
2020/12/21 08:31:12;;;;;;;8.32;3.80;;;8.90;99.90;;;;;;5079590;28;20214;-77
2020/12/21 08:33:41;;;;;;;11.10;3.50;;;8.90;99.90;;;;;;5081108;28;20214;-79
2020/12/21 08:36:23;;;;;;;9.00;3.00;;;8.90;99.90;;;;;;5080554;28;20229;-81
2020/12/21 08:38:50;;;;;;;10.15;3.42;;;8.90;99.90;;;;;;5078325;28;20190;-81
2020/12/21 08:41:18;;;;;;;8.27;3.28;;;8.90;99.90;;;;;;5080559;28;20290;-80
2020/12/21 08:43:45;;;;;;;10.13;3.40;;;8.90;99.90;;;;;;5079045;28;20218;-81
2020/12/21 08:46:13;;;;;;;5.03;2.88;;;9.00;99.90;;;;;;5079645;28;20256;-81
2020/12/21 08:48:42;;;;;;;7.80;3.37;;;8.90;99.90;;;;;;5082350;28;20233;-79
2020/12/21 08:51:08;;;;;;;12.50;3.03;;;9.00;99.90;;;;;;5081961;28;20205;-80
2020/12/21 08:53:35;;;;;;;8.77;2.78;;;9.00;99.90;;;;;;5079391;28;20658;-79
2020/12/21 08:56:10;;;;;;;12.02;3.88;;;9.00;99.90;;;;;;5081980;28;20229;-79
2020/12/21 08:58:37;;;;;;;9.98;2.83;;;9.00;99.90;;;;;;5082006;28;20194;-81
2020/12/21 09:01:05;;;;;;;5.90;3.45;;;9.00;99.90;;;;;;5079091;28;20558;-81
2020/12/21 09:03:32;;;;;;;11.70;2.83;;;9.00;99.90;;;;;;5078210;28;20293;-81
2020/12/21 09:05:58;;;;;;;4.80;2.47;;;9.00;99.90;;;;;;5079376;28;20202;-81
2020/12/21 09:08:24;;;;;;;4.60;2.25;;;8.90;99.90;;;;;;5080366;28;20297;-83
2020/12/21 09:10:51;;;;;;;4.82;2.78;;;9.00;99.90;;;;;;5078911;28;20198;-80
2020/12/21 09:13:17;;;;;;;6.65;2.70;;;9.00;99.90;;;;;;5080349;28;20266;-80
2020/12/21 09:15:43;;;;;;;6.15;2.50;;;9.00;99.90;;;;;;5080278;28;20241;-81
2020/12/21 09:18:12;;;;;;;7.35;2.90;;;9.00;99.90;;;;;;5078075;28;20196;-82
2020/12/21 09:20:39;;;;;;;3.70;2.42;;;9.10;99.90;;;;;;5078471;28;20670;-81
2020/12/21 09:23:05;;;;;;;6.60;2.45;;;9.10;99.90;;;;;;5077746;28;20575;-82
2020/12/21 09:25:32;;;;;;;5.32;2.20;;;9.00;99.90;;;;;;5077832;28;20210;-80
2020/12/21 09:27:58;;;;;;;5.18;2.33;;;9.10;99.90;;;;;;5079576;28;20206;-80
2020/12/21 09:30:24;;;;;;;7.45;3.35;;;9.10;99.90;;;;;;5078214;28;20202;-80
2020/12/21 09:32:51;;;;;;;7.65;3.45;;;9.20;99.90;;;;;;5057162;28;610049;-80
2020/12/21 09:35:18;;;;;;;4.72;2.03;;;9.20;99.90;;;;;;5077960;28;20409;-80
2020/12/21 09:37:44;;;;;;;6.32;2.42;;;9.30;99.90;;;;;;5078972;28;20207;-79
2020/12/21 09:40:11;;;;;;;7.88;2.60;;;9.30;99.90;;;;;;5079360;28;20217;-80
2020/12/21 09:42:37;;;;;;;5.65;2.45;;;9.30;99.90;;;;;;5078390;28;20194;-80
2020/12/21 09:45:03;;;;;;;4.18;2.55;;;9.30;99.90;;;;;;5078512;28;20205;-80
2020/12/21 09:47:30;;;;;;;3.92;2.22;;;9.30;99.90;;;;;;5078320;28;20280;-81
2020/12/21 09:49:56;;;;;;;9.27;3.38;;;9.30;99.90;;;;;;5078145;28;20209;-81
2020/12/21 09:52:24;;;;;;;4.43;2.00;;;9.30;99.90;;;;;;5078207;28;20289;-80
2020/12/21 09:54:50;;;;;;;8.05;2.60;;;9.30;99.90;;;;;;5079235;28;20222;-82
2020/12/21 09:57:18;;;;;;;5.53;2.35;;;9.30;99.90;;;;;;5079693;28;20293;-79
2020/12/21 09:59:45;;;;;;;5.47;2.25;;;9.40;99.90;;;;;;5082624;28;20236;-80
2020/12/21 10:02:11;;;;;;;3.05;1.95;;;9.40;99.90;;;;;;5080598;28;20190;-80
2020/12/21 10:04:37;;;;;;;3.92;1.77;;;9.30;99.90;;;;;;5081171;28;20202;-82
2020/12/21 10:07:04;;;;;;;2.92;2.05;;;9.30;99.90;;;;;;5082312;28;20210;-80
2020/12/21 10:09:31;;;;;;;3.05;1.88;;;9.30;99.90;;;;;;5080328;28;20206;-81
2020/12/21 10:11:57;;;;;;;3.28;1.98;;;9.30;99.90;;;;;;5082317;28;20199;-82
2020/12/21 10:14:23;;;;;;;3.45;1.70;;;9.20;99.90;;;;;;5078468;28;20207;-81
2020/12/21 10:16:53;;;;;;;3.30;1.75;;;9.20;99.90;;;;;;5080505;28;20205;-83
2020/12/21 10:19:19;;;;;;;2.65;1.40;;;9.20;99.90;;;;;;5080600;28;20730;-82
2020/12/21 10:21:46;;;;;;;3.03;1.65;;;9.10;99.90;;;;;;5078357;28;20214;-81
2020/12/21 10:24:12;;;;;;;3.88;1.40;;;9.20;99.90;;;;;;5078110;28;20206;-81
2020/12/21 10:26:40;;;;;;;4.95;2.05;;;9.20;99.90;;;;;;5078419;28;20199;-82
2020/12/21 10:29:07;;;;;;;3.60;1.65;;;9.20;99.90;;;;;;5080680;28;20211;-82
2020/12/21 10:31:33;;;;;;;5.07;1.75;;;9.20;99.90;;;;;;5078609;28;20251;-82
2020/12/21 10:34:00;;;;;;;4.88;2.08;;;9.30;99.90;;;;;;5081903;28;20308;-81
2020/12/21 10:36:26;;;;;;;2.97;2.00;;;9.30;99.90;;;;;;5081691;28;20230;-83
2020/12/21 10:38:52;;;;;;;5.05;1.95;;;9.20;99.90;;;;;;5081499;28;20207;-81
2020/12/21 10:41:19;;;;;;;2.60;1.58;;;9.40;99.90;;;;;;5082053;28;20293;-80
2020/12/21 10:43:46;;;;;;;4.32;1.70;;;9.20;99.90;;;;;;5080610;28;20289;-81
2020/12/21 10:46:20;;;;;;;6.55;2.33;;;9.20;99.90;;;;;;5082891;28;20297;-80
2020/12/21 10:48:47;;;;;;;2.65;1.33;;;9.20;99.90;;;;;;5091891;28;20262;-79
2020/12/21 10:51:13;;;;;;;3.42;1.30;;;9.20;99.90;;;;;;5090373;28;20646;-80
2020/12/21 10:53:39;;;;;;;2.40;1.60;;;9.30;99.90;;;;;;5093616;28;20197;-80
2020/12/21 10:56:11;;;;;;;3.42;1.48;;;9.30;99.90;;;;;;5095050;28;20221;-82
2020/12/21 10:58:41;;;;;;;2.75;1.65;;;9.40;99.90;;;;;;5091198;28;20206;-80
2020/12/21 11:01:08;;;;;;;2.90;1.58;;;9.40;99.90;;;;;;5094805;28;20194;-80
2020/12/21 11:03:35;;;;;;;2.58;1.33;;;9.50;99.90;;;;;;5094921;28;20208;-80
2020/12/21 11:06:01;;;;;;;3.78;1.77;;;9.50;99.90;;;;;;5094626;28;20202;-80
2020/12/21 11:08:27;;;;;;;4.18;1.90;;;9.50;99.90;;;;;;5095256;28;20201;-81
2020/12/21 11:10:54;;;;;;;5.28;1.45;;;9.50;99.90;;;;;;5094598;28;20202;-80
2020/12/21 11:13:20;;;;;;;1.95;1.10;;;9.40;99.90;;;;;;5094826;28;20213;-81
2020/12/21 11:15:46;;;;;;;5.03;1.42;;;9.40;99.90;;;;;;5094744;28;20560;-80
2020/12/21 11:18:14;;;;;;;2.35;1.25;;;9.40;99.90;;;;;;5094749;28;20224;-81
2020/12/21 11:20:40;;;;;;;3.75;1.45;;;9.40;99.90;;;;;;5094929;28;20699;-83
2020/12/21 11:23:06;;;;;;;2.15;1.17;;;9.40;99.90;;;;;;5094992;28;20293;-83
2020/12/21 11:25:33;;;;;;;3.08;1.05;;;9.40;99.90;;;;;;5090090;28;20194;-81
2020/12/21 11:27:59;;;;;;;3.83;1.50;;;9.40;99.90;;;;;;5085866;28;20202;-80
2020/12/21 11:30:26;;;;;;;5.03;1.58;;;9.40;99.90;;;;;;5094722;28;20211;-81
2020/12/21 11:32:52;;;;;;;2.67;1.25;;;9.50;99.90;;;;;;5094942;28;20545;-79
2020/12/21 11:35:19;;;;;;;2.47;1.20;;;9.50;99.90;;;;;;5094672;28;20576;-81
2020/12/21 11:37:46;;;;;;;3.70;1.10;;;9.50;99.90;;;;;;5087375;28;20368;-79
2020/12/21 11:40:12;;;;;;;2.58;1.30;;;9.50;99.90;;;;;;5075611;28;20203;-81
2020/12/21 11:42:39;;;;;;;3.17;1.60;;;9.50;99.90;;;;;;5089467;28;20202;-78
2020/12/21 11:45:06;;;;;;;3.85;1.40;;;9.50;99.90;;;;;;5092552;28;20210;-78
2020/12/21 11:47:32;;;;;;;2.78;1.40;;;9.50;99.90;;;;;;5093714;28;20198;-79
2020/12/21 11:49:59;;;;;;;2.30;1.20;;;9.50;99.90;;;;;;5094740;28;20194;-79
2020/12/21 11:52:29;;;;;;;2.35;1.40;;;9.40;99.90;;;;;;5094766;28;20250;-81
2020/12/21 11:54:56;;;;;;;3.00;1.52;;;9.40;99.90;;;;;;5084099;28;20223;-81
2020/12/21 11:57:22;;;;;;;4.32;1.40;;;9.30;99.90;;;;;;5083785;28;20210;-80
2020/12/21 11:59:48;;;;;;;3.20;1.30;;;9.30;99.90;;;;;;5084151;28;20597;-78
2020/12/21 12:02:15;;;;;;;2.25;1.38;;;9.30;99.90;;;;;;5083909;28;20296;-80
2020/12/21 12:04:41;;;;;;;4.50;1.33;;;9.20;99.90;;;;;;5084911;28;20267;-80
2020/12/21 12:07:07;;;;;;;2.65;1.30;;;9.10;99.90;;;;;;5083123;28;20650;-78
2020/12/21 12:09:35;;;;;;;4.22;1.25;;;9.10;99.90;;;;;;5084008;28;20205;-80
2020/12/21 12:12:03;;;;;;;3.85;1.30;;;9.10;99.90;;;;;;5083016;28;20272;-80
2020/12/21 12:14:29;;;;;;;2.05;1.30;;;9.10;99.90;;;;;;5081371;28;20308;-80
2020/12/21 12:16:56;;;;;;;2.03;1.50;;;9.10;99.90;;;;;;5085649;28;20199;-80
2020/12/21 12:19:22;;;;;;;4.30;1.75;;;9.10;99.90;;;;;;5084552;28;20222;-78
2020/12/21 12:21:49;;;;;;;2.15;1.08;;;9.10;99.90;;;;;;5084384;28;20202;-79
2020/12/21 12:24:16;;;;;;;1.73;1.35;;;9.10;99.90;;;;;;5085383;28;20642;-80
2020/12/21 12:26:43;;;;;;;5.65;1.90;;;9.10;99.90;;;;;;5084353;28;20247;-79
2020/12/21 12:29:10;;;;;;;4.68;1.48;;;9.10;99.90;;;;;;5081474;28;20757;-80
2020/12/21 12:31:36;;;;;;;8.02;1.60;;;9.10;99.90;;;;;;5084029;28;20222;-78
2020/12/21 12:34:03;;;;;;;4.50;1.73;;;9.10;99.90;;;;;;5086135;28;20297;-78
2020/12/21 12:36:30;;;;;;;4.28;1.63;;;9.10;99.90;;;;;;5087862;28;20226;-78
2020/12/21 12:38:56;;;;;;;6.07;1.95;;;9.10;99.90;;;;;;5081271;28;20335;-79
2020/12/21 12:41:24;;;;;;;2.05;1.27;;;9.10;99.90;;;;;;5084180;28;20213;-78
2020/12/21 12:43:51;;;;;;;2.97;1.48;;;9.10;99.90;;;;;;5083118;28;20206;-76
2020/12/21 12:46:17;;;;;;;7.10;2.28;;;9.10;99.90;;;;;;5082573;28;20214;-78
2020/12/21 12:48:44;;;;;;;3.90;1.77;;;9.20;99.90;;;;;;5085561;28;20204;-79
2020/12/21 12:51:10;;;;;;;4.25;1.67;;;9.20;99.90;;;;;;5082947;28;20210;-79